sensor_id;sensor_type;location;lat;lon;timestamp;pressure;altitude;pressure_sealevel;temperature;humidity
55289;BME280;41154;45.394;5.734;2023-04-25T00:01:11;96612.72;;;9.75;100.00
55289;BME280;41154;45.394;5.734;2023-04-25T00:03:38;96606.03;;;9.73;100.00
55289;BME280;41154;45.394;5.734;2023-04-25T00:06:04;96605.44;;;9.70;100.00
55289;BME280;41154;45.394;5.734;2023-04-25T00:08:30;96609.88;;;9.87;100.00
55289;BME280;41154;45.394;5.734;2023-04-25T00:10:57;96615.66;;;9.74;100.00
55289;BME280;41154;45.394;5.734;2023-04-25T00:13:23;96610.47;;;9.62;100.00
55289;BME280;41154;45.394;5.734;2023-04-25T00:15:48;96601.06;;;9.59;100.00
55289;BME280;41154;45.394;5.734;2023-04-25T00:18:15;96600.56;;;9.62;100.00
55289;BME280;41154;45.394;5.734;2023-04-25T00:20:40;96598.69;;;9.63;100.00
55289;BME280;41154;45.394;5.734;2023-04-25T00:23:18;96591.41;;;9.58;100.00
55289;BME280;41154;45.394;5.734;2023-04-25T00:25:44;96594.16;;;9.63;100.00
55289;BME280;41154;45.394;5.734;2023-04-25T00:28:11;96595.75;;;9.64;100.00
55289;BME280;41154;45.394;5.734;2023-04-25T00:30:38;96596.25;;;9.61;100.00
55289;BME280;41154;45.394;5.734;2023-04-25T00:33:04;96596.25;;;9.61;100.00
55289;BME280;41154;45.394;5.734;2023-04-25T00:35:31;96589.81;;;9.57;100.00
55289;BME280;41154;45.394;5.734;2023-04-25T00:37:57;96594.09;;;9.58;100.00
55289;BME280;41154;45.394;5.734;2023-04-25T00:40:23;96582.50;;;9.47;100.00
55289;BME280;41154;45.394;5.734;2023-04-25T00:42:51;96586.09;;;9.36;100.00
55289;BME280;41154;45.394;5.734;2023-04-25T00:45:17;96578.31;;;9.34;100.00
55289;BME280;41154;45.394;5.734;2023-04-25T00:47:43;96573.47;;;9.31;100.00
55289;BME280;41154;45.394;5.734;2023-04-25T00:50:09;96568.38;;;9.30;100.00
55289;BME280;41154;45.394;5.734;2023-04-25T00:52:37;96571.31;;;9.28;100.00
55289;BME280;41154;45.394;5.734;2023-04-25T00:55:04;96558.38;;;9.20;100.00
55289;BME280;41154;45.394;5.734;2023-04-25T00:57:30;96553.78;;;9.15;100.00
55289;BME280;41154;45.394;5.734;2023-04-25T00:59:56;96551.88;;;9.11;100.00
55289;BME280;41154;45.394;5.734;2023-04-25T01:02:23;96552.06;;;9.04;100.00
55289;BME280;41154;45.394;5.734;2023-04-25T01:04:49;96555.28;;;9.06;100.00
55289;BME280;41154;45.394;5.734;2023-04-25T01:07:14;96560.34;;;9.03;100.00
55289;BME280;41154;45.394;5.734;2023-04-25T01:09:41;96556.34;;;9.05;100.00
55289;BME280;41154;45.394;5.734;2023-04-25T01:12:07;96554.78;;;9.09;100.00
55289;BME280;41154;45.394;5.734;2023-04-25T01:14:34;96556.13;;;8.85;100.00
55289;BME280;41154;45.394;5.734;2023-04-25T01:16:59;96551.91;;;8.89;100.00
55289;BME280;41154;45.394;5.734;2023-04-25T01:19:25;96550.09;;;8.94;100.00
55289;BME280;41154;45.394;5.734;2023-04-25T01:21:52;96552.84;;;8.77;100.00
55289;BME280;41154;45.394;5.734;2023-04-25T01:24:18;96544.28;;;8.58;100.00
55289;BME280;41154;45.394;5.734;2023-04-25T01:26:44;96549.91;;;8.57;100.00
55289;BME280;41154;45.394;5.734;2023-04-25T01:29:17;96551.72;;;8.51;100.00
55289;BME280;41154;45.394;5.734;2023-04-25T01:31:44;96552.22;;;8.48;100.00
55289;BME280;41154;45.394;5.734;2023-04-25T01:34:10;96549.53;;;8.48;100.00
55289;BME280;41154;45.394;5.734;2023-04-25T01:36:36;96551.88;;;8.44;100.00
55289;BME280;41154;45.394;5.734;2023-04-25T01:39:02;96546.28;;;8.46;100.00
55289;BME280;41154;45.394;5.734;2023-04-25T01:41:29;96554.75;;;8.60;100.00
55289;BME280;41154;45.394;5.734;2023-04-25T01:43:55;96547.97;;;8.52;100.00
55289;BME280;41154;45.394;5.734;2023-04-25T01:46:21;96550.63;;;8.52;100.00
55289;BME280;41154;45.394;5.734;2023-04-25T01:48:47;96547.41;;;8.50;100.00
55289;BME280;41154;45.394;5.734;2023-04-25T01:51:13;96550.03;;;8.45;100.00
55289;BME280;41154;45.394;5.734;2023-04-25T01:53:40;96550.63;;;8.52;100.00
55289;BME280;41154;45.394;5.734;2023-04-25T01:56:07;96549.84;;;8.52;100.00
55289;BME280;41154;45.394;5.734;2023-04-25T01:58:34;96544.69;;;8.45;100.00
55289;BME280;41154;45.394;5.734;2023-04-25T02:01:18;96543.19;;;8.54;100.00
55289;BME280;41154;45.394;5.734;2023-04-25T02:03:56;96541.88;;;8.57;100.00
55289;BME280;41154;45.394;5.734;2023-04-25T02:06:34;96537.34;;;8.57;100.00
55289;BME280;41154;45.394;5.734;2023-04-25T02:09:00;96542.50;;;8.64;100.00
55289;BME280;41154;45.394;5.734;2023-04-25T02:11:26;96537.66;;;8.61;100.00
55289;BME280;41154;45.394;5.734;2023-04-25T02:14:11;96528.59;;;8.62;100.00
55289;BME280;41154;45.394;5.734;2023-04-25T02:16:56;96534.50;;;8.64;100.00
55289;BME280;41154;45.394;5.734;2023-04-25T02:19:22;96538.72;;;8.60;100.00
55289;BME280;41154;45.394;5.734;2023-04-25T02:21:48;96534.56;;;8.91;100.00
55289;BME280;41154;45.394;5.734;2023-04-25T02:24:13;96543.31;;;8.87;100.00
55289;BME280;41154;45.394;5.734;2023-04-25T02:26:39;96540.56;;;8.81;100.00
55289;BME280;41154;45.394;5.734;2023-04-25T02:29:08;96541.81;;;8.74;100.00
55289;BME280;41154;45.394;5.734;2023-04-25T02:31:34;96536.66;;;8.67;100.00
55289;BME280;41154;45.394;5.734;2023-04-25T02:33:59;96529.16;;;8.64;100.00
55289;BME280;41154;45.394;5.734;2023-04-25T02:36:26;96536.97;;;8.93;100.00
55289;BME280;41154;45.394;5.734;2023-04-25T02:38:53;96539.28;;;8.84;100.00
55289;BME280;41154;45.394;5.734;2023-04-25T02:41:20;96536.47;;;8.74;100.00
55289;BME280;41154;45.394;5.734;2023-04-25T02:43:47;96539.09;;;8.69;100.00
55289;BME280;41154;45.394;5.734;2023-04-25T02:46:12;96539.59;;;8.66;100.00
55289;BME280;41154;45.394;5.734;2023-04-25T02:48:38;96532.94;;;8.68;100.00
55289;BME280;41154;45.394;5.734;2023-04-25T02:51:04;96533.00;;;8.73;100.00
55289;BME280;41154;45.394;5.734;2023-04-25T02:53:30;96537.47;;;8.68;100.00
55289;BME280;41154;45.394;5.734;2023-04-25T02:55:56;96536.53;;;8.57;100.00
55289;BME280;41154;45.394;5.734;2023-04-25T02:58:24;96536.47;;;8.52;100.00
55289;BME280;41154;45.394;5.734;2023-04-25T03:00:51;96538.34;;;8.51;100.00
55289;BME280;41154;45.394;5.734;2023-04-25T03:03:17;96532.66;;;8.48;100.00
55289;BME280;41154;45.394;5.734;2023-04-25T03:05:45;96560.78;;;8.50;100.00
55289;BME280;41154;45.394;5.734;2023-04-25T03:08:13;96583.78;;;8.51;100.00
55289;BME280;41154;45.394;5.734;2023-04-25T03:10:39;96571.66;;;8.66;100.00
55289;BME280;41154;45.394;5.734;2023-04-25T03:13:08;96574.03;;;8.84;100.00
55289;BME280;41154;45.394;5.734;2023-04-25T03:15:35;96587.09;;;8.80;100.00
55289;BME280;41154;45.394;5.734;2023-04-25T03:18:00;96587.97;;;8.86;100.00
55289;BME280;41154;45.394;5.734;2023-04-25T03:20:26;96592.91;;;8.94;100.00
55289;BME280;41154;45.394;5.734;2023-04-25T03:22:52;96595.44;;;9.06;100.00
55289;BME280;41154;45.394;5.734;2023-04-25T03:25:18;96591.50;;;9.14;100.00
55289;BME280;41154;45.394;5.734;2023-04-25T03:27:45;96596.47;;;9.27;100.00
55289;BME280;41154;45.394;5.734;2023-04-25T03:30:11;96603.50;;;9.33;100.00
55289;BME280;41154;45.394;5.734;2023-04-25T03:32:38;96603.25;;;9.13;100.00
55289;BME280;41154;45.394;5.734;2023-04-25T03:35:06;96603.75;;;9.10;100.00
55289;BME280;41154;45.394;5.734;2023-04-25T03:37:32;96612.34;;;9.12;100.00
55289;BME280;41154;45.394;5.734;2023-04-25T03:39:58;96616.31;;;9.31;100.00
55289;BME280;41154;45.394;5.734;2023-04-25T03:42:30;96618.63;;;9.23;100.00
55289;BME280;41154;45.394;5.734;2023-04-25T03:44:56;96622.56;;;9.15;100.00
55289;BME280;41154;45.394;5.734;2023-04-25T03:47:22;96617.50;;;9.18;100.00
55289;BME280;41154;45.394;5.734;2023-04-25T03:49:48;96626.97;;;9.26;100.00
55289;BME280;41154;45.394;5.734;2023-04-25T03:52:20;96627.50;;;9.28;100.00
55289;BME280;41154;45.394;5.734;2023-04-25T03:54:47;96626.78;;;9.11;100.00
55289;BME280;41154;45.394;5.734;2023-04-25T03:57:17;96630.09;;;9.18;100.00
55289;BME280;41154;45.394;5.734;2023-04-25T03:59:43;96628.75;;;9.21;100.00
55289;BME280;41154;45.394;5.734;2023-04-25T04:02:11;96639.91;;;9.34;100.00
55289;BME280;41154;45.394;5.734;2023-04-25T04:04:39;96632.06;;;9.28;100.00
55289;BME280;41154;45.394;5.734;2023-04-25T04:07:05;96634.66;;;9.45;100.00
55289;BME280;41154;45.394;5.734;2023-04-25T04:09:35;96634.66;;;9.45;100.00
55289;BME280;41154;45.394;5.734;2023-04-25T04:12:05;96635.16;;;9.42;100.00
55289;BME280;41154;45.394;5.734;2023-04-25T04:14:33;96632.28;;;9.48;100.00
55289;BME280;41154;45.394;5.734;2023-04-25T04:16:58;96631.97;;;9.45;100.00
55289;BME280;41154;45.394;5.734;2023-04-25T04:19:26;96629.84;;;9.47;100.00
55289;BME280;41154;45.394;5.734;2023-04-25T04:22:03;96630.84;;;9.41;100.00
55289;BME280;41154;45.394;5.734;2023-04-25T04:24:29;96634.66;;;9.45;100.00
55289;BME280;41154;45.394;5.734;2023-04-25T04:27:00;96620.97;;;9.19;100.00
55289;BME280;41154;45.394;5.734;2023-04-25T04:29:47;96621.44;;;9.11;100.00
55289;BME280;41154;45.394;5.734;2023-04-25T04:32:39;96618.25;;;9.14;100.00
55289;BME280;41154;45.394;5.734;2023-04-25T04:35:06;96619.81;;;9.10;100.00
55289;BME280;41154;45.394;5.734;2023-04-25T04:37:32;96624.66;;;9.13;100.00
55289;BME280;41154;45.394;5.734;2023-04-25T04:40:01;96627.22;;;9.03;100.00
55289;BME280;41154;45.394;5.734;2023-04-25T04:42:50;96625.06;;;8.99;100.00
55289;BME280;41154;45.394;5.734;2023-04-25T04:45:34;96629.81;;;8.97;100.00
55289;BME280;41154;45.394;5.734;2023-04-25T04:48:08;96631.44;;;8.98;100.00
55289;BME280;41154;45.394;5.734;2023-04-25T04:51:00;96629.06;;;9.02;100.00
55289;BME280;41154;45.394;5.734;2023-04-25T04:53:44;96621.13;;;9.07;100.00
55289;BME280;41154;45.394;5.734;2023-04-25T04:56:19;96628.44;;;9.39;100.00
55289;BME280;41154;45.394;5.734;2023-04-25T04:58:59;96623.75;;;9.24;100.00
55289;BME280;41154;45.394;5.734;2023-04-25T05:01:30;96628.38;;;9.34;100.00
55289;BME280;41154;45.394;5.734;2023-04-25T05:04:13;96629.50;;;9.16;100.00
55289;BME280;41154;45.394;5.734;2023-04-25T05:07:05;96628.16;;;9.13;100.00
55289;BME280;41154;45.394;5.734;2023-04-25T05:10:10;96631.94;;;9.17;100.00
55289;BME280;41154;45.394;5.734;2023-04-25T05:12:54;96636.78;;;9.21;100.00
55289;BME280;41154;45.394;5.734;2023-04-25T05:15:37;96640.97;;;9.33;100.00
55289;BME280;41154;45.394;5.734;2023-04-25T05:18:20;96636.03;;;9.47;100.00
55289;BME280;41154;45.394;5.734;2023-04-25T05:21:12;96649.59;;;9.41;100.00
55289;BME280;41154;45.394;5.734;2023-04-25T05:24:01;96643.78;;;9.49;100.00
55289;BME280;41154;45.394;5.734;2023-04-25T05:26:53;96652.72;;;9.32;100.00
55289;BME280;41154;45.394;5.734;2023-04-25T05:29:39;96655.47;;;9.15;100.00
55289;BME280;41154;45.394;5.734;2023-04-25T05:32:25;96653.84;;;9.14;100.00
55289;BME280;41154;45.394;5.734;2023-04-25T05:34:51;96658.44;;;9.19;100.00
55289;BME280;41154;45.394;5.734;2023-04-25T05:37:30;96668.59;;;9.17;100.00
55289;BME280;41154;45.394;5.734;2023-04-25T05:40:08;96674.03;;;9.44;100.00
55289;BME280;41154;45.394;5.734;2023-04-25T05:42:56;96676.75;;;9.27;100.00
55289;BME280;41154;45.394;5.734;2023-04-25T05:45:42;96670.97;;;9.13;100.00
55289;BME280;41154;45.394;5.734;2023-04-25T05:48:29;96685.69;;;9.16;100.00
55289;BME280;41154;45.394;5.734;2023-04-25T05:51:12;96687.44;;;9.05;100.00
55289;BME280;41154;45.394;5.734;2023-04-25T05:53:58;96694.22;;;9.13;100.00
55289;BME280;41154;45.394;5.734;2023-04-25T05:56:24;96683.72;;;9.06;100.00
55289;BME280;41154;45.394;5.734;2023-04-25T05:58:52;96688.13;;;9.17;100.00
55289;BME280;41154;45.394;5.734;2023-04-25T06:01:17;96686.94;;;9.52;100.00
55289;BME280;41154;45.394;5.734;2023-04-25T06:03:43;96689.25;;;9.44;100.00
55289;BME280;41154;45.394;5.734;2023-04-25T06:06:11;96694.00;;;9.37;100.00
55289;BME280;41154;45.394;5.734;2023-04-25T06:08:37;96688.56;;;9.31;100.00
55289;BME280;41154;45.394;5.734;2023-04-25T06:11:04;96699.22;;;9.26;100.00
55289;BME280;41154;45.394;5.734;2023-04-25T06:13:30;96698.47;;;9.31;100.00
55289;BME280;41154;45.394;5.734;2023-04-25T06:15:56;96695.34;;;9.17;100.00
55289;BME280;41154;45.394;5.734;2023-04-25T06:18:23;96694.72;;;9.10;100.00
55289;BME280;41154;45.394;5.734;2023-04-25T06:20:48;96694.91;;;9.03;100.00
55289;BME280;41154;45.394;5.734;2023-04-25T06:23:16;96699.13;;;8.99;100.00
55289;BME280;41154;45.394;5.734;2023-04-25T06:25:51;96701.50;;;8.95;100.00
55289;BME280;41154;45.394;5.734;2023-04-25T06:28:16;96700.25;;;9.03;100.00
55289;BME280;41154;45.394;5.734;2023-04-25T06:30:43;96699.66;;;9.18;100.00
55289;BME280;41154;45.394;5.734;2023-04-25T06:33:12;96714.44;;;9.43;100.00
55289;BME280;41154;45.394;5.734;2023-04-25T06:35:39;96702.75;;;9.54;100.00
55289;BME280;41154;45.394;5.734;2023-04-25T06:38:08;96707.38;;;9.37;100.00
55289;BME280;41154;45.394;5.734;2023-04-25T06:40:36;96702.69;;;9.49;100.00
55289;BME280;41154;45.394;5.734;2023-04-25T06:43:02;96712.66;;;9.31;100.00
55289;BME280;41154;45.394;5.734;2023-04-25T06:45:54;96705.81;;;9.18;100.00
55289;BME280;41154;45.394;5.734;2023-04-25T06:48:21;96718.50;;;9.06;100.00
55289;BME280;41154;45.394;5.734;2023-04-25T06:50:47;96725.22;;;9.09;100.00
55289;BME280;41154;45.394;5.734;2023-04-25T06:53:13;96715.53;;;9.47;100.00
55289;BME280;41154;45.394;5.734;2023-04-25T06:55:41;96723.50;;;9.42;100.00
55289;BME280;41154;45.394;5.734;2023-04-25T06:58:12;96716.25;;;9.64;100.00
55289;BME280;41154;45.394;5.734;2023-04-25T07:00:54;96715.06;;;9.77;100.00
55289;BME280;41154;45.394;5.734;2023-04-25T07:03:22;96710.50;;;10.05;100.00
55289;BME280;41154;45.394;5.734;2023-04-25T07:05:51;96710.56;;;9.83;100.00
55289;BME280;41154;45.394;5.734;2023-04-25T07:08:17;96711.91;;;9.80;100.00
55289;BME280;41154;45.394;5.734;2023-04-25T07:10:43;96699.59;;;10.12;100.00
55289;BME280;41154;45.394;5.734;2023-04-25T07:13:09;96719.91;;;10.07;100.00
55289;BME280;41154;45.394;5.734;2023-04-25T07:15:35;96719.59;;;9.99;100.00
55289;BME280;41154;45.394;5.734;2023-04-25T07:18:01;96720.38;;;9.99;100.00
55289;BME280;41154;45.394;5.734;2023-04-25T07:20:27;96727.72;;;9.82;100.00
55289;BME280;41154;45.394;5.734;2023-04-25T07:22:54;96733.38;;;9.85;100.00
55289;BME280;41154;45.394;5.734;2023-04-25T07:25:20;96735.75;;;10.09;100.00
55289;BME280;41154;45.394;5.734;2023-04-25T07:27:46;96741.50;;;10.23;100.00
55289;BME280;41154;45.394;5.734;2023-04-25T07:30:16;96731.16;;;10.04;100.00
55289;BME280;41154;45.394;5.734;2023-04-25T07:32:41;96738.03;;;10.22;100.00
55289;BME280;41154;45.394;5.734;2023-04-25T07:35:07;96727.25;;;10.77;100.00
55289;BME280;41154;45.394;5.734;2023-04-25T07:37:34;96732.75;;;11.03;100.00
55289;BME280;41154;45.394;5.734;2023-04-25T07:40:13;96743.72;;;10.96;100.00
55289;BME280;41154;45.394;5.734;2023-04-25T07:42:45;96741.25;;;11.37;100.00
55289;BME280;41154;45.394;5.734;2023-04-25T07:45:14;96743.59;;;11.23;100.00
55289;BME280;41154;45.394;5.734;2023-04-25T07:47:41;96743.22;;;11.04;100.00
55289;BME280;41154;45.394;5.734;2023-04-25T07:50:07;96752.06;;;11.00;100.00
55289;BME280;41154;45.394;5.734;2023-04-25T07:52:33;96758.81;;;10.70;100.00
55289;BME280;41154;45.394;5.734;2023-04-25T07:55:07;96774.31;;;10.63;100.00
55289;BME280;41154;45.394;5.734;2023-04-25T07:57:53;96773.41;;;10.24;100.00
55289;BME280;41154;45.394;5.734;2023-04-25T08:00:19;96749.84;;;10.54;100.00
55289;BME280;41154;45.394;5.734;2023-04-25T08:02:51;96757.75;;;11.03;100.00
55289;BME280;41154;45.394;5.734;2023-04-25T08:05:17;96763.50;;;10.85;100.00
55289;BME280;41154;45.394;5.734;2023-04-25T08:07:47;96759.75;;;10.86;100.00
55289;BME280;41154;45.394;5.734;2023-04-25T08:10:14;96757.84;;;11.24;100.00
55289;BME280;41154;45.394;5.734;2023-04-25T08:12:41;96757.88;;;11.34;100.00
55289;BME280;41154;45.394;5.734;2023-04-25T08:15:08;96762.56;;;11.06;100.00
55289;BME280;41154;45.394;5.734;2023-04-25T08:17:37;96771.78;;;11.21;100.00
55289;BME280;41154;45.394;5.734;2023-04-25T08:20:03;96773.03;;;11.50;100.00
55289;BME280;41154;45.394;5.734;2023-04-25T08:22:31;96772.25;;;11.12;100.00
55289;BME280;41154;45.394;5.734;2023-04-25T08:25:17;96775.16;;;11.01;100.00
55289;BME280;41154;45.394;5.734;2023-04-25T08:27:43;96776.75;;;11.39;100.00
55289;BME280;41154;45.394;5.734;2023-04-25T08:30:10;96785.19;;;11.68;100.00
55289;BME280;41154;45.394;5.734;2023-04-25T08:32:37;96766.09;;;11.65;100.00
55289;BME280;41154;45.394;5.734;2023-04-25T08:35:24;96770.81;;;12.00;100.00
55289;BME280;41154;45.394;5.734;2023-04-25T08:37:51;96772.69;;;11.95;100.00
55289;BME280;41154;45.394;5.734;2023-04-25T08:40:17;96779.19;;;12.09;100.00
55289;BME280;41154;45.394;5.734;2023-04-25T08:42:57;96789.97;;;12.19;100.00
55289;BME280;41154;45.394;5.734;2023-04-25T08:45:25;96791.91;;;12.75;100.00
55289;BME280;41154;45.394;5.734;2023-04-25T08:47:52;96787.84;;;12.52;100.00
55289;BME280;41154;45.394;5.734;2023-04-25T08:50:19;96800.50;;;12.57;100.00
55289;BME280;41154;45.394;5.734;2023-04-25T08:52:52;96805.06;;;12.36;100.00
55289;BME280;41154;45.394;5.734;2023-04-25T08:55:19;96800.72;;;12.14;100.00
55289;BME280;41154;45.394;5.734;2023-04-25T08:57:48;96795.72;;;11.85;100.00
55289;BME280;41154;45.394;5.734;2023-04-25T09:00:16;96800.03;;;11.81;100.00
55289;BME280;41154;45.394;5.734;2023-04-25T09:02:44;96805.56;;;11.59;100.00
55289;BME280;41154;45.394;5.734;2023-04-25T09:05:12;96813.03;;;12.00;100.00
55289;BME280;41154;45.394;5.734;2023-04-25T09:07:39;96810.47;;;13.39;100.00
55289;BME280;41154;45.394;5.734;2023-04-25T09:10:05;96819.91;;;13.10;100.00
55289;BME280;41154;45.394;5.734;2023-04-25T09:12:35;96814.78;;;13.04;95.85
55289;BME280;41154;45.394;5.734;2023-04-25T09:15:07;96817.66;;;13.69;91.94
55289;BME280;41154;45.394;5.734;2023-04-25T09:18:02;96822.53;;;13.67;96.99
55289;BME280;41154;45.394;5.734;2023-04-25T09:20:41;96819.59;;;13.27;92.41
55289;BME280;41154;45.394;5.734;2023-04-25T09:23:08;96806.72;;;13.04;95.25
55289;BME280;41154;45.394;5.734;2023-04-25T09:25:37;96813.72;;;12.64;100.00
55289;BME280;41154;45.394;5.734;2023-04-25T09:28:08;96811.28;;;13.08;94.77
55289;BME280;41154;45.394;5.734;2023-04-25T09:30:36;96823.91;;;13.18;93.74
55289;BME280;41154;45.394;5.734;2023-04-25T09:33:11;96836.84;;;13.21;91.74
55289;BME280;41154;45.394;5.734;2023-04-25T09:35:42;96830.94;;;12.88;94.88
55289;BME280;41154;45.394;5.734;2023-04-25T09:38:14;96829.84;;;12.79;95.80
55289;BME280;41154;45.394;5.734;2023-04-25T09:40:54;96831.06;;;13.90;87.20
55289;BME280;41154;45.394;5.734;2023-04-25T09:43:44;96831.63;;;13.87;95.82
55289;BME280;41154;45.394;5.734;2023-04-25T09:46:11;96833.75;;;13.90;97.55
55289;BME280;41154;45.394;5.734;2023-04-25T09:48:48;96837.28;;;13.90;90.34
55289;BME280;41154;45.394;5.734;2023-04-25T09:51:16;96829.75;;;15.21;89.32
55289;BME280;41154;45.394;5.734;2023-04-25T09:53:46;96823.41;;;16.71;89.72
55289;BME280;41154;45.394;5.734;2023-04-25T09:56:36;96805.72;;;17.86;74.99
55289;BME280;41154;45.394;5.734;2023-04-25T09:59:07;96800.19;;;17.17;87.92
55289;BME280;41154;45.394;5.734;2023-04-25T10:01:39;96810.00;;;16.99;87.80
55289;BME280;41154;45.394;5.734;2023-04-25T10:04:11;96801.38;;;17.57;87.82
55289;BME280;41154;45.394;5.734;2023-04-25T10:06:59;96800.78;;;16.43;82.29
55289;BME280;41154;45.394;5.734;2023-04-25T10:09:26;96797.94;;;18.35;68.42
55289;BME280;41154;45.394;5.734;2023-04-25T10:11:58;96789.84;;;17.79;76.59
55289;BME280;41154;45.394;5.734;2023-04-25T10:14:24;96784.28;;;17.43;76.69
55289;BME280;41154;45.394;5.734;2023-04-25T10:16:52;96776.75;;;18.23;69.48
55289;BME280;41154;45.394;5.734;2023-04-25T10:19:22;96776.06;;;17.76;65.41
55289;BME280;41154;45.394;5.734;2023-04-25T10:22:05;96779.56;;;16.31;81.10
55289;BME280;41154;45.394;5.734;2023-04-25T10:24:32;96768.50;;;17.17;79.14
55289;BME280;41154;45.394;5.734;2023-04-25T10:27:00;96763.97;;;16.61;79.46
55289;BME280;41154;45.394;5.734;2023-04-25T10:29:27;96768.91;;;14.65;78.52
55289;BME280;41154;45.394;5.734;2023-04-25T10:31:53;96779.56;;;13.96;82.29
55289;BME280;41154;45.394;5.734;2023-04-25T10:34:19;96786.38;;;14.28;89.60
55289;BME280;41154;45.394;5.734;2023-04-25T10:36:50;96783.53;;;13.39;87.78
55289;BME280;41154;45.394;5.734;2023-04-25T10:39:25;96784.09;;;12.53;84.29
55289;BME280;41154;45.394;5.734;2023-04-25T10:41:55;96790.81;;;12.51;85.48
55289;BME280;41154;45.394;5.734;2023-04-25T10:44:22;96791.28;;;12.17;90.28
55289;BME280;41154;45.394;5.734;2023-04-25T10:46:48;96806.88;;;12.20;93.02
55289;BME280;41154;45.394;5.734;2023-04-25T10:49:37;96791.31;;;12.27;95.91
55289;BME280;41154;45.394;5.734;2023-04-25T10:54:53;96782.44;;;14.55;85.91
55289;BME280;41154;45.394;5.734;2023-04-25T10:57:42;96783.63;;;14.78;85.82
55289;BME280;41154;45.394;5.734;2023-04-25T11:00:20;96780.91;;;15.90;79.33
55289;BME280;41154;45.394;5.734;2023-04-25T11:02:58;96780.63;;;15.92;75.26
55289;BME280;41154;45.394;5.734;2023-04-25T11:05:31;96770.34;;;16.13;75.16
55289;BME280;41154;45.394;5.734;2023-04-25T11:07:58;96766.13;;;15.82;72.95
55289;BME280;41154;45.394;5.734;2023-04-25T11:10:28;96767.56;;;15.99;75.38
55289;BME280;41154;45.394;5.734;2023-04-25T11:12:55;96759.44;;;16.56;73.71
55289;BME280;41154;45.394;5.734;2023-04-25T11:15:21;96762.91;;;16.95;68.20
55289;BME280;41154;45.394;5.734;2023-04-25T11:17:47;96763.84;;;16.52;73.14
55289;BME280;41154;45.394;5.734;2023-04-25T11:20:13;96767.03;;;16.73;69.54
55289;BME280;41154;45.394;5.734;2023-04-25T11:22:41;96760.91;;;15.14;74.34
55289;BME280;41154;45.394;5.734;2023-04-25T11:25:10;96767.31;;;15.23;75.68
55289;BME280;41154;45.394;5.734;2023-04-25T11:27:55;96761.00;;;14.74;77.84
55289;BME280;41154;45.394;5.734;2023-04-25T11:30:24;96759.50;;;15.70;75.71
55289;BME280;41154;45.394;5.734;2023-04-25T11:32:50;96752.88;;;15.08;78.12
55289;BME280;41154;45.394;5.734;2023-04-25T11:35:19;96757.16;;;14.41;80.14
55289;BME280;41154;45.394;5.734;2023-04-25T11:37:45;96754.88;;;14.58;76.42
55289;BME280;41154;45.394;5.734;2023-04-25T11:40:11;96765.47;;;14.05;76.49
55289;BME280;41154;45.394;5.734;2023-04-25T11:42:44;96757.34;;;14.54;76.08
55289;BME280;41154;45.394;5.734;2023-04-25T11:45:10;96752.34;;;14.37;74.15
55289;BME280;41154;45.394;5.734;2023-04-25T11:47:37;96761.66;;;14.55;78.11
55289;BME280;41154;45.394;5.734;2023-04-25T11:50:05;96756.84;;;15.16;74.58
55289;BME280;41154;45.394;5.734;2023-04-25T11:52:45;96754.69;;;14.05;77.22
55289;BME280;41154;45.394;5.734;2023-04-25T11:55:18;96753.06;;;14.09;77.42
55289;BME280;41154;45.394;5.734;2023-04-25T11:57:48;96762.97;;;13.63;80.13
55289;BME280;41154;45.394;5.734;2023-04-25T12:00:17;96756.53;;;13.49;80.35
55289;BME280;41154;45.394;5.734;2023-04-25T12:02:51;96757.13;;;13.41;80.05
55289;BME280;41154;45.394;5.734;2023-04-25T12:05:18;96752.44;;;13.67;79.87
55289;BME280;41154;45.394;5.734;2023-04-25T12:07:45;96743.91;;;14.44;74.78
55289;BME280;41154;45.394;5.734;2023-04-25T12:10:12;96745.84;;;13.94;70.70
55289;BME280;41154;45.394;5.734;2023-04-25T12:12:43;96748.50;;;14.44;71.16
55289;BME280;41154;45.394;5.734;2023-04-25T12:17:37;96747.19;;;14.81;63.97
55289;BME280;41154;45.394;5.734;2023-04-25T12:20:08;96740.44;;;15.07;65.47
55289;BME280;41154;45.394;5.734;2023-04-25T12:22:34;96752.19;;;15.70;66.65
55289;BME280;41154;45.394;5.734;2023-04-25T12:25:02;96757.28;;;14.60;74.03
55289;BME280;41154;45.394;5.734;2023-04-25T12:27:31;96757.63;;;13.53;75.19
55289;BME280;41154;45.394;5.734;2023-04-25T12:29:57;96757.19;;;13.91;72.77
55289;BME280;41154;45.394;5.734;2023-04-25T12:32:24;96748.88;;;13.82;74.22
55289;BME280;41154;45.394;5.734;2023-04-25T12:34:51;96742.44;;;13.78;70.75
55289;BME280;41154;45.394;5.734;2023-04-25T12:37:16;96741.16;;;14.15;68.84
55289;BME280;41154;45.394;5.734;2023-04-25T12:39:42;96739.69;;;14.72;74.08
55289;BME280;41154;45.394;5.734;2023-04-25T12:42:08;96739.03;;;14.86;70.82
55289;BME280;41154;45.394;5.734;2023-04-25T12:44:37;96733.47;;;15.01;72.83
55289;BME280;41154;45.394;5.734;2023-04-25T12:47:03;96740.16;;;14.80;69.32
55289;BME280;41154;45.394;5.734;2023-04-25T12:49:30;96742.09;;;14.34;66.44
55289;BME280;41154;45.394;5.734;2023-04-25T12:51:57;96736.41;;;14.36;64.70
55289;BME280;41154;45.394;5.734;2023-04-25T12:54:23;96736.59;;;14.50;66.45
55289;BME280;41154;45.394;5.734;2023-04-25T12:56:49;96731.59;;;14.72;68.03
55289;BME280;41154;45.394;5.734;2023-04-25T12:59:15;96733.56;;;14.62;69.72
55289;BME280;41154;45.394;5.734;2023-04-25T13:01:41;96735.75;;;14.54;68.32
55289;BME280;41154;45.394;5.734;2023-04-25T13:04:08;96736.13;;;14.77;67.71
55289;BME280;41154;45.394;5.734;2023-04-25T13:06:33;96739.50;;;14.93;60.15
55289;BME280;41154;45.394;5.734;2023-04-25T13:08:59;96735.09;;;15.02;61.93
55289;BME280;41154;45.394;5.734;2023-04-25T13:11:25;96735.47;;;14.90;64.50
55289;BME280;41154;45.394;5.734;2023-04-25T13:13:51;96746.88;;;14.48;66.11
55289;BME280;41154;45.394;5.734;2023-04-25T13:16:17;96742.16;;;14.29;72.35
55289;BME280;41154;45.394;5.734;2023-04-25T13:18:46;96738.91;;;14.67;73.86